sensor_id;sensor_type;location;lat;lon;timestamp;P1;durP1;ratioP1;P2;durP2;ratioP2
69795;SDS011;57073;45.650;9.612;2023-04-03T00:00:26;5.93;;;3.63;;
69795;SDS011;57073;45.650;9.612;2023-04-03T00:05:26;7.23;;;3.23;;
69795;SDS011;57073;45.650;9.612;2023-04-03T00:10:27;5.40;;;3.80;;
69795;SDS011;57073;45.650;9.612;2023-04-03T00:15:28;6.68;;;3.45;;
69795;SDS011;57073;45.650;9.612;2023-04-03T00:20:28;6.23;;;3.77;;
69795;SDS011;57073;45.650;9.612;2023-04-03T00:25:29;6.37;;;3.40;;
69795;SDS011;57073;45.650;9.612;2023-04-03T00:30:29;7.40;;;3.47;;
69795;SDS011;57073;45.650;9.612;2023-04-03T00:35:30;5.97;;;3.50;;
69795;SDS011;57073;45.650;9.612;2023-04-03T00:40:33;6.83;;;4.60;;
69795;SDS011;57073;45.650;9.612;2023-04-03T00:45:37;6.10;;;3.55;;
69795;SDS011;57073;45.650;9.612;2023-04-03T00:50:40;11.43;;;3.50;;
69795;SDS011;57073;45.650;9.612;2023-04-03T00:55:42;7.70;;;3.80;;
69795;SDS011;57073;45.650;9.612;2023-04-03T01:00:48;5.57;;;3.40;;
69795;SDS011;57073;45.650;9.612;2023-04-03T01:05:57;7.43;;;3.30;;
69795;SDS011;57073;45.650;9.612;2023-04-03T01:10:58;6.10;;;3.20;;
69795;SDS011;57073;45.650;9.612;2023-04-03T01:16:02;4.87;;;2.80;;
69795;SDS011;57073;45.650;9.612;2023-04-03T01:26:36;4.37;;;2.20;;
69795;SDS011;57073;45.650;9.612;2023-04-03T01:36:37;5.13;;;2.30;;
69795;SDS011;57073;45.650;9.612;2023-04-03T01:41:38;3.37;;;2.00;;
69795;SDS011;57073;45.650;9.612;2023-04-03T01:46:38;4.60;;;1.80;;
69795;SDS011;57073;45.650;9.612;2023-04-03T01:51:39;4.30;;;1.60;;
69795;SDS011;57073;45.650;9.612;2023-04-03T01:56:39;5.40;;;1.80;;
69795;SDS011;57073;45.650;9.612;2023-04-03T02:01:40;2.93;;;1.50;;
69795;SDS011;57073;45.650;9.612;2023-04-03T02:06:40;4.70;;;1.70;;
69795;SDS011;57073;45.650;9.612;2023-04-03T02:11:41;2.97;;;1.50;;
69795;SDS011;57073;45.650;9.612;2023-04-03T02:16:41;2.37;;;1.40;;
69795;SDS011;57073;45.650;9.612;2023-04-03T02:21:41;2.30;;;1.00;;
69795;SDS011;57073;45.650;9.612;2023-04-03T02:26:42;2.33;;;0.90;;
69795;SDS011;57073;45.650;9.612;2023-04-03T02:31:42;2.87;;;1.27;;
69795;SDS011;57073;45.650;9.612;2023-04-03T02:36:42;1.60;;;0.77;;
69795;SDS011;57073;45.650;9.612;2023-04-03T02:41:43;2.13;;;1.00;;
69795;SDS011;57073;45.650;9.612;2023-04-03T02:46:43;2.07;;;0.73;;
69795;SDS011;57073;45.650;9.612;2023-04-03T02:51:44;2.53;;;1.03;;
69795;SDS011;57073;45.650;9.612;2023-04-03T02:56:44;2.15;;;1.08;;
69795;SDS011;57073;45.650;9.612;2023-04-03T03:01:45;2.00;;;0.77;;
69795;SDS011;57073;45.650;9.612;2023-04-03T03:06:45;1.57;;;0.63;;
69795;SDS011;57073;45.650;9.612;2023-04-03T03:11:46;1.52;;;0.70;;
69795;SDS011;57073;45.650;9.612;2023-04-03T03:16:47;1.20;;;0.60;;
69795;SDS011;57073;45.650;9.612;2023-04-03T03:21:47;1.23;;;0.50;;
69795;SDS011;57073;45.650;9.612;2023-04-03T03:26:47;2.10;;;0.70;;
69795;SDS011;57073;45.650;9.612;2023-04-03T03:31:48;1.30;;;0.50;;
69795;SDS011;57073;45.650;9.612;2023-04-03T03:36:48;1.80;;;0.73;;
69795;SDS011;57073;45.650;9.612;2023-04-03T03:41:48;2.27;;;1.37;;
69795;SDS011;57073;45.650;9.612;2023-04-03T03:46:49;3.37;;;1.60;;
69795;SDS011;57073;45.650;9.612;2023-04-03T03:51:50;1.97;;;0.93;;
69795;SDS011;57073;45.650;9.612;2023-04-03T03:56:50;2.08;;;1.02;;
69795;SDS011;57073;45.650;9.612;2023-04-03T04:01:51;2.70;;;0.80;;
69795;SDS011;57073;45.650;9.612;2023-04-03T04:06:51;1.70;;;1.00;;
69795;SDS011;57073;45.650;9.612;2023-04-03T04:11:52;3.37;;;1.00;;
69795;SDS011;57073;45.650;9.612;2023-04-03T04:16:53;2.53;;;1.27;;
69795;SDS011;57073;45.650;9.612;2023-04-03T04:21:53;3.60;;;1.30;;
69795;SDS011;57073;45.650;9.612;2023-04-03T04:26:53;1.40;;;0.50;;
69795;SDS011;57073;45.650;9.612;2023-04-03T04:31:54;1.13;;;0.60;;
69795;SDS011;57073;45.650;9.612;2023-04-03T04:36:54;1.83;;;0.80;;
69795;SDS011;57073;45.650;9.612;2023-04-03T04:41:55;1.80;;;0.60;;
69795;SDS011;57073;45.650;9.612;2023-04-03T04:46:55;3.67;;;1.00;;
69795;SDS011;57073;45.650;9.612;2023-04-03T04:51:55;2.30;;;0.67;;
69795;SDS011;57073;45.650;9.612;2023-04-03T04:56:56;2.90;;;0.90;;
69795;SDS011;57073;45.650;9.612;2023-04-03T05:01:56;3.23;;;1.00;;
69795;SDS011;57073;45.650;9.612;2023-04-03T05:06:57;3.63;;;1.10;;
69795;SDS011;57073;45.650;9.612;2023-04-03T05:11:57;2.47;;;1.17;;
69795;SDS011;57073;45.650;9.612;2023-04-03T05:16:57;2.87;;;1.30;;
69795;SDS011;57073;45.650;9.612;2023-04-03T05:21:58;9.07;;;1.87;;
69795;SDS011;57073;45.650;9.612;2023-04-03T05:26:58;4.27;;;1.40;;
69795;SDS011;57073;45.650;9.612;2023-04-03T05:31:59;5.20;;;1.40;;
69795;SDS011;57073;45.650;9.612;2023-04-03T05:36:59;3.57;;;1.27;;
69795;SDS011;57073;45.650;9.612;2023-04-03T05:41:59;2.37;;;1.20;;
69795;SDS011;57073;45.650;9.612;2023-04-03T05:47:00;6.60;;;1.33;;
69795;SDS011;57073;45.650;9.612;2023-04-03T05:52:00;8.00;;;1.40;;
69795;SDS011;57073;45.650;9.612;2023-04-03T05:57:01;3.53;;;1.10;;
69795;SDS011;57073;45.650;9.612;2023-04-03T06:02:01;4.23;;;1.50;;
69795;SDS011;57073;45.650;9.612;2023-04-03T06:07:03;4.17;;;1.37;;
69795;SDS011;57073;45.650;9.612;2023-04-03T06:12:03;4.23;;;1.20;;
69795;SDS011;57073;45.650;9.612;2023-04-03T06:17:03;3.37;;;1.13;;
69795;SDS011;57073;45.650;9.612;2023-04-03T06:22:04;3.80;;;1.52;;
69795;SDS011;57073;45.650;9.612;2023-04-03T06:27:05;4.10;;;1.40;;
69795;SDS011;57073;45.650;9.612;2023-04-03T06:32:06;7.50;;;1.50;;
69795;SDS011;57073;45.650;9.612;2023-04-03T06:37:10;4.07;;;1.50;;
69795;SDS011;57073;45.650;9.612;2023-04-03T06:42:15;5.50;;;1.60;;
69795;SDS011;57073;45.650;9.612;2023-04-03T06:47:16;2.13;;;1.30;;
69795;SDS011;57073;45.650;9.612;2023-04-03T06:52:17;2.93;;;1.30;;
69795;SDS011;57073;45.650;9.612;2023-04-03T06:57:17;4.20;;;1.50;;
69795;SDS011;57073;45.650;9.612;2023-04-03T07:02:18;4.65;;;1.35;;
69795;SDS011;57073;45.650;9.612;2023-04-03T07:07:20;3.85;;;1.50;;
69795;SDS011;57073;45.650;9.612;2023-04-03T07:12:21;3.97;;;1.77;;
69795;SDS011;57073;45.650;9.612;2023-04-03T07:17:21;3.53;;;1.73;;
69795;SDS011;57073;45.650;9.612;2023-04-03T07:22:22;4.63;;;1.80;;
69795;SDS011;57073;45.650;9.612;2023-04-03T07:27:22;4.20;;;1.53;;
69795;SDS011;57073;45.650;9.612;2023-04-03T07:32:23;4.57;;;1.70;;
69795;SDS011;57073;45.650;9.612;2023-04-03T07:37:23;5.90;;;2.20;;
69795;SDS011;57073;45.650;9.612;2023-04-03T07:42:24;3.33;;;1.70;;
69795;SDS011;57073;45.650;9.612;2023-04-03T07:47:27;6.93;;;1.73;;
69795;SDS011;57073;45.650;9.612;2023-04-03T07:52:28;3.30;;;1.38;;
69795;SDS011;57073;45.650;9.612;2023-04-03T07:57:28;5.20;;;1.70;;
69795;SDS011;57073;45.650;9.612;2023-04-03T08:02:28;4.33;;;1.83;;
69795;SDS011;57073;45.650;9.612;2023-04-03T08:07:29;1.90;;;1.27;;
69795;SDS011;57073;45.650;9.612;2023-04-03T08:12:29;2.43;;;1.50;;
69795;SDS011;57073;45.650;9.612;2023-04-03T08:17:31;3.35;;;1.50;;
69795;SDS011;57073;45.650;9.612;2023-04-03T08:22:32;2.23;;;1.40;;
69795;SDS011;57073;45.650;9.612;2023-04-03T08:27:33;1.73;;;1.20;;
69795;SDS011;57073;45.650;9.612;2023-04-03T08:32:33;3.87;;;1.13;;
69795;SDS011;57073;45.650;9.612;2023-04-03T08:37:35;3.95;;;1.20;;
69795;SDS011;57073;45.650;9.612;2023-04-03T08:48:08;3.80;;;1.43;;
69795;SDS011;57073;45.650;9.612;2023-04-03T08:53:28;7.22;;;1.60;;
69795;SDS011;57073;45.650;9.612;2023-04-03T08:58:33;2.85;;;1.33;;
69795;SDS011;57073;45.650;9.612;2023-04-03T09:03:40;2.50;;;1.30;;
69795;SDS011;57073;45.650;9.612;2023-04-03T09:13:55;3.33;;;1.50;;
69795;SDS011;57073;45.650;9.612;2023-04-03T09:19:04;3.10;;;1.27;;
69795;SDS011;57073;45.650;9.612;2023-04-03T09:24:15;3.05;;;1.30;;
69795;SDS011;57073;45.650;9.612;2023-04-03T09:29:18;2.85;;;1.02;;
69795;SDS011;57073;45.650;9.612;2023-04-03T09:34:25;7.97;;;1.47;;
69795;SDS011;57073;45.650;9.612;2023-04-03T09:39:28;1.83;;;1.30;;
69795;SDS011;57073;45.650;9.612;2023-04-03T09:44:34;3.78;;;1.25;;
69795;SDS011;57073;45.650;9.612;2023-04-03T09:49:35;2.10;;;1.10;;
69795;SDS011;57073;45.650;9.612;2023-04-03T09:54:36;4.23;;;1.10;;
69795;SDS011;57073;45.650;9.612;2023-04-03T09:59:46;1.30;;;0.80;;
69795;SDS011;57073;45.650;9.612;2023-04-03T10:04:56;4.38;;;1.80;;
69795;SDS011;57073;45.650;9.612;2023-04-03T10:09:58;4.23;;;1.50;;
69795;SDS011;57073;45.650;9.612;2023-04-03T10:15:01;4.10;;;1.83;;
69795;SDS011;57073;45.650;9.612;2023-04-03T10:25:20;3.13;;;1.95;;
69795;SDS011;57073;45.650;9.612;2023-04-03T10:36:10;3.45;;;2.10;;
69795;SDS011;57073;45.650;9.612;2023-04-03T10:46:28;2.00;;;1.70;;
69795;SDS011;57073;45.650;9.612;2023-04-03T10:51:42;4.03;;;1.60;;
69795;SDS011;57073;45.650;9.612;2023-04-03T11:01:56;3.50;;;1.67;;
69795;SDS011;57073;45.650;9.612;2023-04-03T11:07:00;4.38;;;1.83;;
69795;SDS011;57073;45.650;9.612;2023-04-03T11:17:35;3.60;;;1.73;;
69795;SDS011;57073;45.650;9.612;2023-04-03T11:22:43;4.78;;;1.50;;
69795;SDS011;57073;45.650;9.612;2023-04-03T11:27:59;1.98;;;1.52;;
69795;SDS011;57073;45.650;9.612;2023-04-03T11:38:30;5.40;;;1.60;;
69795;SDS011;57073;45.650;9.612;2023-04-03T11:43:43;3.47;;;1.98;;
69795;SDS011;57073;45.650;9.612;2023-04-03T11:49:04;3.50;;;1.83;;
69795;SDS011;57073;45.650;9.612;2023-04-03T11:59:42;3.17;;;2.20;;
69795;SDS011;57073;45.650;9.612;2023-04-03T12:04:43;3.27;;;2.33;;
69795;SDS011;57073;45.650;9.612;2023-04-03T12:10:22;5.03;;;2.20;;
69795;SDS011;57073;45.650;9.612;2023-04-03T12:15:23;3.80;;;2.00;;
69795;SDS011;57073;45.650;9.612;2023-04-03T12:20:54;3.55;;;1.80;;
69795;SDS011;57073;45.650;9.612;2023-04-03T12:26:00;6.40;;;2.20;;
69795;SDS011;57073;45.650;9.612;2023-04-03T12:31:04;3.78;;;1.83;;
69795;SDS011;57073;45.650;9.612;2023-04-03T12:36:09;3.08;;;2.00;;
69795;SDS011;57073;45.650;9.612;2023-04-03T12:41:18;5.13;;;2.20;;
69795;SDS011;57073;45.650;9.612;2023-04-03T12:46:23;3.42;;;2.22;;
69795;SDS011;57073;45.650;9.612;2023-04-03T12:51:42;3.10;;;2.38;;
69795;SDS011;57073;45.650;9.612;2023-04-03T12:56:44;3.50;;;1.80;;
69795;SDS011;57073;45.650;9.612;2023-04-03T13:01:52;12.33;;;2.20;;
69795;SDS011;57073;45.650;9.612;2023-04-03T13:06:54;6.72;;;2.20;;
69795;SDS011;57073;45.650;9.612;2023-04-03T13:11:56;3.47;;;1.90;;
69795;SDS011;57073;45.650;9.612;2023-04-03T13:17:11;6.30;;;1.95;;
69795;SDS011;57073;45.650;9.612;2023-04-03T13:27:20;4.32;;;2.08;;
69795;SDS011;57073;45.650;9.612;2023-04-03T13:32:22;3.35;;;2.00;;
69795;SDS011;57073;45.650;9.612;2023-04-03T13:37:26;3.73;;;1.80;;
69795;SDS011;57073;45.650;9.612;2023-04-03T13:42:33;3.43;;;2.00;;
69795;SDS011;57073;45.650;9.612;2023-04-03T13:47:40;3.92;;;1.90;;
69795;SDS011;57073;45.650;9.612;2023-04-03T13:57:49;3.05;;;2.25;;
69795;SDS011;57073;45.650;9.612;2023-04-03T14:03:02;4.50;;;1.90;;
69795;SDS011;57073;45.650;9.612;2023-04-03T14:08:12;5.13;;;2.13;;
69795;SDS011;57073;45.650;9.612;2023-04-03T14:13:13;2.73;;;2.10;;
69795;SDS011;57073;45.650;9.612;2023-04-03T14:18:17;6.13;;;2.22;;
69795;SDS011;57073;45.650;9.612;2023-04-03T14:23:19;3.83;;;2.20;;
69795;SDS011;57073;45.650;9.612;2023-04-03T14:28:21;4.80;;;2.10;;
69795;SDS011;57073;45.650;9.612;2023-04-03T14:33:22;8.60;;;2.10;;
69795;SDS011;57073;45.650;9.612;2023-04-03T14:38:28;8.87;;;2.10;;
69795;SDS011;57073;45.650;9.612;2023-04-03T14:43:30;3.42;;;2.20;;
69795;SDS011;57073;45.650;9.612;2023-04-03T14:48:30;3.90;;;2.10;;
69795;SDS011;57073;45.650;9.612;2023-04-03T14:53:31;6.53;;;2.60;;
69795;SDS011;57073;45.650;9.612;2023-04-03T14:58:32;7.15;;;2.42;;
69795;SDS011;57073;45.650;9.612;2023-04-03T15:03:32;7.27;;;2.30;;
69795;SDS011;57073;45.650;9.612;2023-04-03T15:08:33;3.73;;;2.20;;
69795;SDS011;57073;45.650;9.612;2023-04-03T15:13:33;4.23;;;2.40;;
69795;SDS011;57073;45.650;9.612;2023-04-03T15:18:35;5.53;;;2.13;;
69795;SDS011;57073;45.650;9.612;2023-04-03T15:23:38;6.80;;;2.60;;
69795;SDS011;57073;45.650;9.612;2023-04-03T15:28:39;7.20;;;2.30;;
69795;SDS011;57073;45.650;9.612;2023-04-03T15:33:42;15.07;;;2.65;;
69795;SDS011;57073;45.650;9.612;2023-04-03T15:38:42;9.57;;;2.27;;
69795;SDS011;57073;45.650;9.612;2023-04-03T15:43:42;3.10;;;2.30;;
69795;SDS011;57073;45.650;9.612;2023-04-03T15:48:43;5.43;;;2.50;;
69795;SDS011;57073;45.650;9.612;2023-04-03T15:53:44;4.53;;;2.60;;
69795;SDS011;57073;45.650;9.612;2023-04-03T15:58:45;3.70;;;2.67;;
69795;SDS011;57073;45.650;9.612;2023-04-03T16:03:45;6.80;;;2.80;;
69795;SDS011;57073;45.650;9.612;2023-04-03T16:08:46;5.13;;;2.43;;
69795;SDS011;57073;45.650;9.612;2023-04-03T16:13:49;6.97;;;2.47;;
69795;SDS011;57073;45.650;9.612;2023-04-03T16:18:49;4.30;;;2.33;;
69795;SDS011;57073;45.650;9.612;2023-04-03T16:23:50;4.20;;;2.50;;
69795;SDS011;57073;45.650;9.612;2023-04-03T16:28:51;5.27;;;2.37;;
69795;SDS011;57073;45.650;9.612;2023-04-03T16:33:52;6.97;;;2.45;;
69795;SDS011;57073;45.650;9.612;2023-04-03T16:38:53;4.57;;;2.67;;
69795;SDS011;57073;45.650;9.612;2023-04-03T16:43:53;4.90;;;1.97;;
69795;SDS011;57073;45.650;9.612;2023-04-03T16:48:53;7.37;;;2.70;;
69795;SDS011;57073;45.650;9.612;2023-04-03T16:53:55;7.93;;;2.85;;
69795;SDS011;57073;45.650;9.612;2023-04-03T16:58:56;5.77;;;2.47;;
69795;SDS011;57073;45.650;9.612;2023-04-03T17:03:56;6.73;;;2.40;;
69795;SDS011;57073;45.650;9.612;2023-04-03T17:08:56;5.27;;;2.40;;
69795;SDS011;57073;45.650;9.612;2023-04-03T17:13:57;8.77;;;2.53;;
69795;SDS011;57073;45.650;9.612;2023-04-03T17:18:57;4.25;;;2.10;;
69795;SDS011;57073;45.650;9.612;2023-04-03T17:24:01;5.37;;;2.57;;
69795;SDS011;57073;45.650;9.612;2023-04-03T17:29:07;6.72;;;2.33;;
69795;SDS011;57073;45.650;9.612;2023-04-03T17:34:08;5.07;;;2.40;;
69795;SDS011;57073;45.650;9.612;2023-04-03T17:39:11;7.10;;;2.45;;
69795;SDS011;57073;45.650;9.612;2023-04-03T17:44:11;5.83;;;2.57;;
69795;SDS011;57073;45.650;9.612;2023-04-03T17:49:12;6.28;;;2.40;;
69795;SDS011;57073;45.650;9.612;2023-04-03T17:54:14;6.80;;;2.50;;
69795;SDS011;57073;45.650;9.612;2023-04-03T17:59:14;4.90;;;2.50;;
69795;SDS011;57073;45.650;9.612;2023-04-03T18:04:15;4.00;;;2.20;;
69795;SDS011;57073;45.650;9.612;2023-04-03T18:09:20;9.77;;;2.40;;
69795;SDS011;57073;45.650;9.612;2023-04-03T18:14:24;7.32;;;2.38;;
69795;SDS011;57073;45.650;9.612;2023-04-03T18:19:26;6.22;;;2.40;;
69795;SDS011;57073;45.650;9.612;2023-04-03T18:24:27;6.63;;;2.50;;
69795;SDS011;57073;45.650;9.612;2023-04-03T18:29:31;4.15;;;2.20;;
69795;SDS011;57073;45.650;9.612;2023-04-03T18:34:34;5.93;;;2.90;;
69795;SDS011;57073;45.650;9.612;2023-04-03T18:39:35;5.50;;;2.27;;
69795;SDS011;57073;45.650;9.612;2023-04-03T18:44:35;5.15;;;2.20;;
69795;SDS011;57073;45.650;9.612;2023-04-03T18:49:38;4.13;;;2.17;;
69795;SDS011;57073;45.650;9.612;2023-04-03T18:54:40;4.78;;;2.03;;
69795;SDS011;57073;45.650;9.612;2023-04-03T18:59:42;8.47;;;2.50;;
69795;SDS011;57073;45.650;9.612;2023-04-03T19:04:42;4.53;;;1.93;;
69795;SDS011;57073;45.650;9.612;2023-04-03T19:09:43;4.77;;;2.03;;
69795;SDS011;57073;45.650;9.612;2023-04-03T19:14:43;3.63;;;1.97;;
69795;SDS011;57073;45.650;9.612;2023-04-03T19:19:43;3.33;;;2.00;;
69795;SDS011;57073;45.650;9.612;2023-04-03T19:24:44;5.70;;;2.30;;
69795;SDS011;57073;45.650;9.612;2023-04-03T19:29:44;5.80;;;2.00;;
69795;SDS011;57073;45.650;9.612;2023-04-03T19:34:48;4.05;;;2.08;;
69795;SDS011;57073;45.650;9.612;2023-04-03T19:39:48;8.37;;;2.40;;
69795;SDS011;57073;45.650;9.612;2023-04-03T19:44:48;6.33;;;1.90;;
69795;SDS011;57073;45.650;9.612;2023-04-03T19:49:50;4.33;;;1.90;;
69795;SDS011;57073;45.650;9.612;2023-04-03T19:54:51;4.90;;;2.13;;
69795;SDS011;57073;45.650;9.612;2023-04-03T19:59:51;6.30;;;2.20;;
69795;SDS011;57073;45.650;9.612;2023-04-03T20:04:51;5.20;;;2.20;;
69795;SDS011;57073;45.650;9.612;2023-04-03T20:09:52;4.33;;;2.00;;
69795;SDS011;57073;45.650;9.612;2023-04-03T20:14:52;4.13;;;1.70;;
69795;SDS011;57073;45.650;9.612;2023-04-03T20:19:53;4.60;;;1.70;;
69795;SDS011;57073;45.650;9.612;2023-04-03T20:24:54;4.93;;;1.80;;
69795;SDS011;57073;45.650;9.612;2023-04-03T20:29:55;2.58;;;1.50;;
69795;SDS011;57073;45.650;9.612;2023-04-03T20:34:56;3.50;;;1.47;;
69795;SDS011;57073;45.650;9.612;2023-04-03T20:39:57;4.22;;;1.60;;
69795;SDS011;57073;45.650;9.612;2023-04-03T20:44:57;3.37;;;1.83;;
69795;SDS011;57073;45.650;9.612;2023-04-03T20:49:58;2.73;;;1.17;;
69795;SDS011;57073;45.650;9.612;2023-04-03T20:54:58;4.10;;;1.08;;
69795;SDS011;57073;45.650;9.612;2023-04-03T20:59:59;3.07;;;1.00;;
69795;SDS011;57073;45.650;9.612;2023-04-03T21:05:03;3.33;;;1.00;;
69795;SDS011;57073;45.650;9.612;2023-04-03T21:20:46;3.43;;;0.80;;
69795;SDS011;57073;45.650;9.612;2023-04-03T21:25:47;5.07;;;1.00;;
69795;SDS011;57073;45.650;9.612;2023-04-03T21:30:48;2.80;;;1.00;;
69795;SDS011;57073;45.650;9.612;2023-04-03T21:35:48;2.20;;;1.07;;
69795;SDS011;57073;45.650;9.612;2023-04-03T21:40:56;1.48;;;0.80;;
69795;SDS011;57073;45.650;9.612;2023-04-03T21:45:57;4.30;;;0.80;;
69795;SDS011;57073;45.650;9.612;2023-04-03T21:51:04;2.33;;;0.90;;
69795;SDS011;57073;45.650;9.612;2023-04-03T21:56:05;4.57;;;1.00;;
69795;SDS011;57073;45.650;9.612;2023-04-03T22:01:09;2.17;;;1.00;;
69795;SDS011;57073;45.650;9.612;2023-04-03T22:06:13;4.30;;;1.03;;
69795;SDS011;57073;45.650;9.612;2023-04-03T22:11:15;2.22;;;1.00;;
69795;SDS011;57073;45.650;9.612;2023-04-03T22:16:15;2.47;;;1.00;;
69795;SDS011;57073;45.650;9.612;2023-04-03T22:21:16;1.63;;;1.00;;
69795;SDS011;57073;45.650;9.612;2023-04-03T22:26:16;2.93;;;1.00;;
69795;SDS011;57073;45.650;9.612;2023-04-03T22:31:17;3.07;;;0.77;;
69795;SDS011;57073;45.650;9.612;2023-04-03T22:36:17;1.35;;;0.68;;
69795;SDS011;57073;45.650;9.612;2023-04-03T22:41:18;3.60;;;0.60;;
69795;SDS011;57073;45.650;9.612;2023-04-03T22:46:18;2.37;;;0.63;;
69795;SDS011;57073;45.650;9.612;2023-04-03T22:51:19;2.90;;;0.70;;
69795;SDS011;57073;45.650;9.612;2023-04-03T22:56:20;3.43;;;0.87;;
69795;SDS011;57073;45.650;9.612;2023-04-03T23:01:20;2.43;;;0.67;;
69795;SDS011;57073;45.650;9.612;2023-04-03T23:06:22;3.38;;;0.75;;
69795;SDS011;57073;45.650;9.612;2023-04-03T23:11:23;2.47;;;0.70;;
69795;SDS011;57073;45.650;9.612;2023-04-03T23:16:23;4.67;;;0.80;;
69795;SDS011;57073;45.650;9.612;2023-04-03T23:21:24;4.07;;;0.70;;
69795;SDS011;57073;45.650;9.612;2023-04-03T23:26:24;2.53;;;0.90;;
69795;SDS011;57073;45.650;9.612;2023-04-03T23:31:25;3.30;;;0.80;;
69795;SDS011;57073;45.650;9.612;2023-04-03T23:36:25;1.40;;;0.60;;
69795;SDS011;57073;45.650;9.612;2023-04-03T23:41:26;2.73;;;0.80;;
69795;SDS011;57073;45.650;9.612;2023-04-03T23:46:26;3.28;;;0.75;;
69795;SDS011;57073;45.650;9.612;2023-04-03T23:51:27;2.87;;;0.90;;
69795;SDS011;57073;45.650;9.612;2023-04-03T23:56:27;2.93;;;0.60;;
